WALLOPS ISLAND, VA - 224

GPS Positions

GPS Time
Latitude
Degrees
Longitude
Degrees
Gap
 
Distance
NM
Speed
Knots
Direction
Degrees
Apr 18, 03:51 37.75436° -75.32523° 30 min 0.02 0.01
230°
Apr 18, 03:21 37.75439° -75.32518° 30 min 0.02 0.01
224°
Apr 18, 02:51 37.75447° -75.32507° 30 min 0.02 0.00
270°
Apr 18, 02:21 37.75447° -75.32504° 30 min 0.02 0.00
Apr 18, 01:51 37.75446° -75.32504° 30 min 0.02 0.00
329°
Apr 18, 01:21 37.75443° -75.32501° 30 min 0.02 0.01
248°
Apr 18, 00:51 37.75445° -75.32495° 30 min 0.02 0.01
319°
Apr 18, 00:21 37.75437° -75.32486° 30 min 0.01 0.01
135°
Apr 17, 23:51 37.75442° -75.32493° 30 min 0.02 0.00
Apr 17, 23:21 37.75440° -75.32493° 30 min 0.01 0.01
309°
Apr 17, 22:51 37.75434° -75.32484° 30 min 0.01 0.00
133°
Apr 17, 22:21 37.75436° -75.32486° 30 min 0.01 0.01
122°
Apr 17, 21:51 37.75441° -75.32497° 30 min 0.01 0.01
98°
Apr 17, 21:21 37.75442° -75.32507° 30 min 0.02 0.01
84°
Apr 17, 20:51 37.75441° -75.32520° 30 min 0.02 0.01
65°
Apr 17, 20:21 37.75438° -75.32529° 30 min 0.02 0.01
58°
Apr 17, 19:51 37.75434° -75.32536° 30 min 0.02 0.01
37°
Apr 17, 19:21 37.75428° -75.32542° 30 min 0.02 0.00
Apr 17, 18:51 37.75425° -75.32542° 30 min 0.02 0.01
Apr 17, 18:21 37.75418° -75.32542° 30 min 0.02 0.00
38°
Apr 17, 17:51 37.75416° -75.32544° 30 min 0.02 0.01
341°
Apr 17, 17:21 37.75411° -75.32542° 30 min 0.02 0.00
Apr 17, 16:51 37.75410° -75.32542° 30 min 0.02 0.01
347°
Apr 17, 16:21 37.75404° -75.32540° 30 min 0.02 0.01
341°
Apr 17, 15:51 37.75399° -75.32538° 30 min 0.02 0.00
180°
Apr 17, 15:21 37.75401° -75.32538° 30 min 0.02 0.00
90°
Apr 17, 14:51 37.75401° -75.32540° 30 min 0.02 0.00
270°
Apr 17, 14:21 37.75401° -75.32538° 30 min 0.02 0.00
Apr 17, 13:51 37.75398° -75.32538° 30 min 0.02 0.00
Apr 17, 13:21 37.75396° -75.32538° 30 min 0.02 0.00
Apr 17, 12:51 37.75396° -75.32538° 30 min 0.02 0.00
302°
Apr 17, 12:21 37.75395° -75.32536° 30 min 0.02 0.01
337°
Apr 17, 11:51 37.75391° -75.32533° 30 min 0.02 0.01
261°
Apr 17, 11:21 37.75391° -75.32527° 30 min 0.02 0.00
208°
Apr 17, 10:51 37.75395° -75.32525° 30 min 0.02 0.01
238°
Apr 17, 10:21 37.75397° -75.32520° 30 min 0.02 0.01
161°
Apr 17, 09:51 37.75402° -75.32523° 30 min 0.01 0.01
139°
Apr 17, 09:21 37.75407° -75.32527° 30 min 0.01 0.01
151°
Apr 17, 08:51 37.75412° -75.32531° 30 min 0.02 0.00
313°
Apr 17, 08:21 37.75411° -75.32529° 30 min 0.01 0.01
151°
Apr 17, 07:51 37.75416° -75.32533° 30 min 0.02 0.01
168°
Apr 17, 07:21 37.75425° -75.32536° 30 min 0.02 0.00
180°
Apr 17, 06:51 37.75427° -75.32536° 30 min 0.02 0.01
50°
Apr 17, 06:21 37.75424° -75.32540° 30 min 0.02 0.00
19°
Apr 17, 05:51 37.75420° -75.32542° 30 min 0.02 0.00
142°
Apr 17, 05:21 37.75423° -75.32544° 30 min 0.02 0.00
Apr 17, 04:51 37.75420° -75.32544° 30 min 0.02 0.00
293°
Apr 17, 04:21 37.75420° -75.32542° 30 min 0.02 0.00
270°
Apr 17, 03:51 37.75420° -75.32538° 30 min 0.02 0.00
28°
Apr 17, 03:21 37.75416° -75.32540° 30 min 0.02 0.00
288°
Apr 17, 02:51 37.75415° -75.32536° 30 min 0.02 0.01
322°
Apr 17, 02:21 37.75409° -75.32529° 30 min 0.01 0.01
302°
Apr 17, 01:51 37.75404° -75.32520° 30 min 0.01 0.02
257°
Apr 17, 01:21 37.75408° -75.32501° 30 min 0.01 0.02
265°
Apr 17, 00:51 37.75409° -75.32484° 30 min 0.01 0.01
270°
Apr 17, 00:21 37.75409° -75.32478° 30 min 0.01 0.00
90°
Apr 16, 23:51 37.75409° -75.32482° 30 min 0.01 0.01
154°
Apr 16, 23:21 37.75415° -75.32486° 30 min 0.01 0.00
270°
Apr 16, 22:51 37.75415° -75.32484° 30 min 0.01 0.01
202°
Apr 16, 22:21 37.75420° -75.32482° 30 min 0.01 0.00
113°
Apr 16, 21:51 37.75420° -75.32484° 30 min 0.01 0.00
133°
Apr 16, 21:21 37.75422° -75.32486° 30 min 0.01 0.00
90°
Apr 16, 20:51 37.75422° -75.32491° 30 min 0.01 0.01
90°
Apr 16, 20:21 37.75422° -75.32501° 30 min 0.00 0.03
45°
Apr 16, 19:51 37.75407° -75.32520° 30 min 0.01 0.01
78°
Apr 16, 19:21 37.75406° -75.32527° 30 min 0.01 0.01
13°
Apr 16, 18:51 37.75398° -75.32529° 30 min 0.02 0.00
58°
Apr 16, 18:21 37.75397° -75.32531° 30 min 0.02 0.01
109°
Apr 16, 17:51 37.75399° -75.32538° 30 min 0.02 0.00
31°
Apr 16, 17:21 37.75396° -75.32540° 30 min 0.02 0.00
332°
Apr 16, 16:51 37.75393° -75.32538° 30 min 0.02 0.00
58°
Apr 16, 16:21 37.75391° -75.32540° 30 min 0.02 0.00
180°
Apr 16, 15:51 37.75393° -75.32540° 30 min 0.02 0.00
Apr 16, 15:21 37.75389° -75.32540° 30 min 0.03 0.01
295°
Apr 16, 14:51 37.75386° -75.32531° 30 min 0.02 0.00
180°
Apr 16, 14:21 37.75387° -75.32531° 30 min 0.02 0.00
Apr 16, 13:51 37.75384° -75.32531° 30 min 0.02 0.00
Apr 16, 13:21 37.75383° -75.32531° 30 min 0.03 0.00
291°
Apr 16, 12:51 37.75382° -75.32527° 30 min 0.02 0.01
109°
Apr 16, 12:21 37.75384° -75.32536° 30 min 0.03 0.01
103°
Apr 16, 11:51 37.75385° -75.32542° 30 min 0.03 0.01
295°
Apr 16, 11:21 37.75383° -75.32536° 30 min 0.03 0.00
238°
Apr 16, 10:51 37.75384° -75.32533° 30 min 0.03 0.00
270°
Apr 16, 10:21 37.75384° -75.32531° 30 min 0.02 0.01
297°
Apr 16, 09:51 37.75381° -75.32523° 30 min 0.02 0.02
270°
Apr 16, 09:21 37.75381° -75.32501° 30 min 0.02 0.01
77°
Apr 16, 08:51 37.75379° -75.32512° 30 min 0.02 0.06
212°
Apr 16, 08:21 37.75423° -75.32478° 30 min 0.01 0.01
205°
Apr 16, 07:51 37.75430° -75.32473° 30 min 0.02 0.01
159°
Apr 16, 07:21 37.75440° -75.32478° 30 min 0.02 0.02
118°
Apr 16, 06:51 37.75446° -75.32493° 30 min 0.02 0.00
69°
Apr 16, 06:21 37.75445° -75.32497° 30 min 0.02 0.00
122°
Apr 16, 05:51 37.75446° -75.32499° 30 min 0.02 0.00
270°
Apr 16, 05:21 37.75446° -75.32497° 30 min 0.02 0.01
102°
Apr 16, 04:51 37.75447° -75.32504° 30 min 0.02 0.00
122°
Apr 16, 04:21 37.75449° -75.32506° 30 min 0.02 0.01
77°
Apr 16, 03:51 37.75446° -75.32518° 30 min 0.02 0.01
81°
Apr 16, 03:21 37.75445° -75.32527° 30 min 0.02 0.00
43°
Apr 16, 02:51 37.75443° -75.32529° 30 min 0.02 0.00
47°
Apr 16, 02:21 37.75442° -75.32531° 30 min 0.02 0.02
244°
Apr 16, 01:51 37.75449° -75.32512° 30 min 0.02 0.01
251°
Apr 16, 01:21 37.75453° -75.32499° 30 min 0.02 0.01
270°
Apr 16, 00:51 37.75453° -75.32491° 30 min 0.02 0.05
326°
Apr 16, 00:21 37.75418° -75.32461° 30 min 0.02 0.00
180°
Apr 15, 23:51 37.75420° -75.32461° 30 min 0.02 0.01
131°
Apr 15, 23:21 37.75424° -75.32467° 30 min 0.02 0.03
157°
Apr 15, 22:51 37.75447° -75.32480° 30 min 0.02 0.00
72°
Apr 15, 22:21 37.75446° -75.32484° 30 min 0.02 0.01
135°
Apr 15, 21:51 37.75449° -75.32488° 30 min 0.02 0.01
122°
Apr 15, 21:21 37.75453° -75.32495° 30 min 0.02 0.01
325°
Apr 15, 20:51 37.75445° -75.32488° 30 min 0.02 0.00
302°
Apr 15, 20:21 37.75444° -75.32486° 30 min 0.02 0.01
90°
Apr 15, 19:51 37.75444° -75.32493° 30 min 0.02 0.01
151°
Apr 15, 19:21 37.75449° -75.32497° 30 min 0.02 0.01
67°
Apr 15, 18:51 37.75446° -75.32506° 30 min 0.02 0.01
110°
Apr 15, 18:21 37.75449° -75.32516° 30 min 0.02 0.02
54°
Apr 15, 17:51 37.75440° -75.32533° 30 min 0.02 0.01
46°
Apr 15, 17:21 37.75433° -75.32542° 30 min 0.02 0.01
12°
Apr 15, 16:51 37.75425° -75.32544° 30 min 0.02 0.01
16°
Apr 15, 16:21 37.75418° -75.32546° 30 min 0.02 0.01
Apr 15, 15:51 37.75414° -75.32546° 30 min 0.02 0.00
Apr 15, 15:21 37.75413° -75.32546° 30 min 0.02 0.00
Apr 15, 14:51 37.75412° -75.32546° 30 min 0.02 0.00
270°
Apr 15, 14:21 37.75412° -75.32542° 30 min 0.02 0.01
293°
Apr 15, 13:51 37.75408° -75.32529° 30 min 0.02 0.01
293°
Apr 15, 13:21 37.75406° -75.32523° 30 min 0.01 0.01
161°
Apr 15, 12:51 37.75411° -75.32525° 30 min 0.01 0.02
266°
Apr 15, 12:21 37.75412° -75.32504° 30 min 0.00 0.03
240°
Apr 15, 11:51 37.75423° -75.32480° 30 min 0.01 0.01
221°
Apr 15, 11:21 37.75430° -75.32471° 30 min 0.02 0.01
164°
Apr 15, 10:51 37.75434° -75.32473° 30 min 0.02 0.01
302°
Apr 15, 10:21 37.75429° -75.32462° 30 min 0.02 0.01
157°
Apr 15, 09:51 37.75433° -75.32465° 30 min 0.02 0.01
180°
Apr 15, 09:21 37.75439° -75.32465° 30 min 0.02 0.00
152°
Apr 15, 08:51 37.75442° -75.32467° 30 min 0.02 0.00
180°
Apr 15, 08:21 37.75443° -75.32467° 30 min 0.02 0.00
90°
Apr 15, 07:51 37.75443° -75.32469° 30 min 0.02 0.00
288°
Apr 15, 07:21 37.75442° -75.32465° 30 min 0.02 0.01
130°
Apr 15, 06:51 37.75445° -75.32469° 30 min 0.02 0.00
Apr 15, 06:21 37.75444° -75.32469° 30 min 0.02 0.00
152°
Apr 15, 05:51 37.75447° -75.32471° 30 min 0.02 0.00
Apr 15, 05:21 37.75447° -75.32471° 30 min 0.02 0.01
129°